Time;durP1;ratioP1;P1;durP2;ratioP2;P2;SDS_P1;SDS_P2;PMS_P1;PMS_P2;Temp;Humidity;BMP_temperature;BMP_pressure;BME280_temperature;BME280_humidity;BME280_pressure;Samples;Min_cycle;Max_cycle;Signal;HPM_P1;HPM_P2
2022/09/26 00:01:20;;;;;;;35.27;21.50;;;;;;;9.44;100.00;99165.19;4161195;28;20334;-66
2022/09/26 00:03:49;;;;;;;38.30;21.57;;;;;;;9.47;100.00;99162.16;4135268;28;20301;-65
2022/09/26 00:06:16;;;;;;;34.77;21.13;;;;;;;9.45;100.00;99161.50;4155486;28;20307;-67
2022/09/26 00:08:45;;;;;;;32.53;20.73;;;;;;;9.57;100.00;99154.00;4157746;28;20626;-66
2022/09/26 00:11:13;;;;;;;33.23;20.73;;;;;;;9.57;100.00;99152.19;4145654;28;20240;-66
2022/09/26 00:13:40;;;;;;;40.43;22.50;;;;;;;9.52;100.00;99151.88;4152147;28;20254;-67
2022/09/26 00:16:09;;;;;;;33.27;20.83;;;;;;;9.52;100.00;99147.38;4153098;28;20560;-67
2022/09/26 00:18:36;;;;;;;37.87;22.53;;;;;;;9.42;100.00;99149.41;4155356;28;21885;-66
2022/09/26 00:21:04;;;;;;;35.90;21.83;;;;;;;9.44;100.00;99143.94;4166437;28;20404;-65
2022/09/26 00:23:30;;;;;;;32.40;20.30;;;;;;;9.49;100.00;99141.59;4131464;28;20235;-68
2022/09/26 00:25:57;;;;;;;35.90;22.43;;;;;;;9.44;100.00;99136.78;4148116;28;20234;-67
2022/09/26 00:28:24;;;;;;;35.80;21.67;;;;;;;9.49;100.00;99139.75;4164287;28;20238;-69
2022/09/26 00:30:51;;;;;;;37.97;21.37;;;;;;;9.50;100.00;99132.63;4159482;28;20235;-66
2022/09/26 00:33:18;;;;;;;33.77;20.80;;;;;;;9.48;100.00;99127.50;4146987;28;20605;-68
2022/09/26 00:35:51;;;;;;;37.33;20.47;;;;;;;9.41;100.00;99130.97;4164082;28;20546;-68
2022/09/26 00:38:18;;;;;;;35.27;22.67;;;;;;;9.37;100.00;99133.16;4160636;28;20484;-68
2022/09/26 00:40:45;;;;;;;38.10;22.17;;;;;;;9.35;100.00;99131.66;4150385;28;20251;-67
2022/09/26 00:43:34;;;;;;;39.43;22.47;;;;;;;9.30;100.00;99133.00;4162638;28;20274;-67
2022/09/26 00:46:21;;;;;;;33.80;21.20;;;;;;;9.28;100.00;99128.84;4156864;28;20303;-68
2022/09/26 00:48:54;;;;;;;33.93;21.20;;;;;;;9.23;100.00;99126.72;4166115;28;20347;-66
2022/09/26 00:51:21;;;;;;;37.50;21.47;;;;;;;9.27;100.00;99122.72;4143807;28;21838;-67
2022/09/26 00:53:49;;;;;;;34.37;21.70;;;;;;;9.29;100.00;99128.69;4160084;28;20300;-67
2022/09/26 00:56:23;;;;;;;36.43;22.23;;;;;;;9.30;100.00;99133.00;4156485;28;20238;-68
2022/09/26 00:59:06;;;;;;;36.90;22.70;;;;;;;9.35;100.00;99139.63;4159932;28;20244;-69
2022/09/26 01:01:33;;;;;;;35.67;22.27;;;;;;;9.34;100.00;99130.00;4148837;28;21189;-68
2022/09/26 01:04:01;;;;;;;35.13;22.07;;;;;;;9.34;100.00;99132.66;4162409;28;25845;-69
2022/09/26 01:06:28;;;;;;;37.23;21.93;;;;;;;9.41;100.00;99133.63;4163997;28;20234;-68
2022/09/26 01:09:00;;;;;;;33.53;21.13;;;;;;;9.27;100.00;99128.03;4141233;28;20429;-68
2022/09/26 01:11:27;;;;;;;40.07;22.03;;;;;;;9.23;100.00;99129.38;4143038;28;22390;-68
2022/09/26 01:13:54;;;;;;;34.73;22.23;;;;;;;9.11;100.00;99122.75;4160916;28;20602;-69
2022/09/26 01:16:20;;;;;;;36.37;22.27;;;;;;;9.10;100.00;99123.72;4154870;28;20424;-68
2022/09/26 01:18:47;;;;;;;34.80;20.93;;;;;;;9.17;100.00;99122.06;4158693;28;20249;-69
2022/09/26 01:21:40;;;;;;;38.23;21.57;;;;;;;9.14;100.00;99118.94;4156208;28;22875;-68
2022/09/26 01:24:31;;;;;;;33.77;21.80;;;;;;;9.16;100.00;99120.41;4148662;28;20239;-67
2022/09/26 01:27:27;;;;;;;36.40;22.10;;;;;;;8.98;100.00;99106.50;4162469;28;20235;-70
2022/09/26 01:30:06;;;;;;;35.83;20.47;;;;;;;8.92;100.00;99112.47;4150068;28;21799;-68
2022/09/26 01:32:52;;;;;;;36.53;20.77;;;;;;;8.84;100.00;99106.16;4147573;28;20237;-69
2022/09/26 01:35:23;;;;;;;33.77;19.47;;;;;;;8.78;100.00;99113.97;4174929;28;25586;-69
2022/09/26 01:38:11;;;;;;;31.30;19.67;;;;;;;8.73;100.00;99109.16;4154016;28;20439;-67
2022/09/26 01:41:06;;;;;;;40.73;22.20;;;;;;;8.72;100.00;99106.69;4154006;28;21806;-69
2022/09/26 01:43:40;;;;;;;40.10;21.60;;;;;;;8.87;100.00;99100.56;4155506;28;20238;-69
2022/09/26 01:46:19;;;;;;;36.57;21.13;;;;;;;8.71;100.00;99105.88;4165365;28;20238;-67
2022/09/26 01:48:51;;;;;;;35.27;21.53;;;;;;;8.61;100.00;99097.22;4148888;28;22256;-68
2022/09/26 01:51:46;;;;;;;36.50;21.73;;;;;;;8.51;100.00;99101.88;4156503;29;20306;-67
2022/09/26 01:54:18;;;;;;;36.70;19.57;;;;;;;8.47;100.00;99103.19;4164599;29;21656;-68
2022/09/26 01:56:46;;;;;;;35.23;20.20;;;;;;;8.49;100.00;99098.56;4150027;29;20712;-66
2022/09/26 01:59:17;;;;;;;36.40;20.50;;;;;;;8.41;100.00;99094.91;4148209;29;22153;-67
2022/09/26 02:01:45;;;;;;;36.27;21.13;;;;;;;8.33;100.00;99097.50;4150823;29;21337;-69
2022/09/26 02:04:15;;;;;;;43.97;22.70;;;;;;;8.30;100.00;99103.13;4158205;28;20308;-67
2022/09/26 02:06:48;;;;;;;38.17;20.70;;;;;;;8.26;100.00;99101.78;4152871;28;21617;-68
2022/09/26 02:09:19;;;;;;;37.43;21.50;;;;;;;8.23;100.00;99107.44;4148394;29;20432;-68
2022/09/26 02:11:48;;;;;;;34.10;21.23;;;;;;;8.19;100.00;99095.50;4156866;28;20248;-67
2022/09/26 02:14:21;;;;;;;34.13;20.63;;;;;;;8.13;100.00;99096.16;4159959;29;20242;-70
2022/09/26 02:16:55;;;;;;;37.77;21.70;;;;;;;8.09;100.00;99110.72;4148928;29;20245;-67
2022/09/26 02:19:25;;;;;;;37.07;22.27;;;;;;;8.09;100.00;99100.13;4134730;29;23413;-66
2022/09/26 02:21:51;;;;;;;32.23;19.07;;;;;;;8.08;100.00;99095.78;4140357;29;20276;-68
2022/09/26 02:24:18;;;;;;;38.90;22.73;;;;;;;8.18;100.00;99094.66;4146095;29;21015;-67
2022/09/26 02:26:45;;;;;;;42.20;24.23;;;;;;;8.50;100.00;99093.09;4158403;28;20343;-68
2022/09/26 02:29:12;;;;;;;37.30;23.20;;;;;;;8.54;100.00;99099.72;4156233;29;20556;-68
2022/09/26 02:31:44;;;;;;;38.93;23.00;;;;;;;8.52;100.00;99100.88;4151269;29;20441;-68
2022/09/26 02:34:11;;;;;;;38.63;23.13;;;;;;;8.32;100.00;99101.16;4151768;29;20250;-69
2022/09/26 02:36:38;;;;;;;37.83;22.40;;;;;;;8.24;100.00;99099.31;4140308;29;20318;-67
2022/09/26 02:39:05;;;;;;;33.33;21.83;;;;;;;8.16;100.00;99088.69;4157920;28;20234;-69
2022/09/26 02:42:16;;;;;;;36.67;21.40;;;;;;;8.10;100.00;99094.66;4154257;29;20504;-68
2022/09/26 02:45:20;;;;;;;38.67;21.83;;;;;;;8.08;100.00;99088.69;4116195;29;20869;-69
2022/09/26 02:48:07;;;;;;;44.27;24.60;;;;;;;8.21;100.00;99089.03;4115881;29;20314;-68
2022/09/26 02:51:01;;;;;;;40.13;24.43;;;;;;;8.25;100.00;99094.84;4152363;28;20312;-67
2022/09/26 02:53:58;;;;;;;41.53;24.53;;;;;;;8.24;100.00;99094.03;4165300;28;20340;-68
2022/09/26 02:57:03;;;;;;;40.90;22.97;;;;;;;8.07;100.00;99091.50;4124813;28;20322;-69
2022/09/26 02:59:49;;;;;;;39.80;24.00;;;;;;;8.07;100.00;99088.84;4159294;28;20230;-70
2022/09/26 03:02:18;;;;;;;44.90;25.07;;;;;;;8.02;100.00;99082.19;4166845;28;21258;-69
2022/09/26 03:04:59;;;;;;;43.43;23.87;;;;;;;7.90;100.00;99075.56;4142284;28;20232;-67
2022/09/26 03:07:50;;;;;;;40.63;23.90;;;;;;;7.88;100.00;99082.84;4145772;28;20316;-68
2022/09/26 03:10:18;;;;;;;47.80;25.73;;;;;;;7.81;100.00;99079.16;4157137;28;20247;-69
2022/09/26 03:12:44;;;;;;;44.23;25.83;;;;;;;7.83;100.00;99079.84;4136219;28;20950;-69
2022/09/26 03:15:12;;;;;;;48.80;26.83;;;;;;;8.07;100.00;99078.25;4146619;28;20409;-68
2022/09/26 03:17:43;;;;;;;46.67;26.33;;;;;;;8.15;100.00;99078.28;4137180;29;20291;-68
2022/09/26 03:20:14;;;;;;;45.43;26.20;;;;;;;7.97;100.00;99076.56;4155891;28;20235;-66
2022/09/26 03:22:41;;;;;;;43.77;25.20;;;;;;;7.89;100.00;99078.34;4145682;28;21770;-69
2022/09/26 03:25:15;;;;;;;45.77;26.50;;;;;;;7.86;100.00;99065.44;4144663;28;20666;-67
2022/09/26 03:27:42;;;;;;;47.80;27.77;;;;;;;7.81;100.00;99077.34;4135310;29;20308;-69
2022/09/26 03:30:14;;;;;;;47.97;26.60;;;;;;;8.12;100.00;99067.97;4145323;28;20260;-68
2022/09/26 03:32:40;;;;;;;43.10;26.30;;;;;;;8.14;100.00;99063.34;4158639;28;20247;-69
2022/09/26 03:35:08;;;;;;;47.23;28.00;;;;;;;8.03;100.00;99065.34;4150205;28;20238;-70
2022/09/26 03:37:36;;;;;;;46.07;26.70;;;;;;;7.94;100.00;99061.00;4149091;28;22764;-67
2022/09/26 03:40:10;;;;;;;43.27;26.00;;;;;;;7.85;100.00;99061.97;4150580;28;20242;-67
2022/09/26 03:42:37;;;;;;;43.33;27.03;;;;;;;7.78;100.00;99060.97;4154618;28;20232;-68
2022/09/26 03:45:07;;;;;;;47.93;26.87;;;;;;;7.74;100.00;99056.97;4156641;28;20297;-69
2022/09/26 03:47:33;;;;;;;45.30;26.33;;;;;;;7.89;100.00;99059.81;4159114;28;20253;-69
2022/09/26 03:50:00;;;;;;;46.50;26.23;;;;;;;7.80;100.00;99059.81;4157451;28;20235;-67
2022/09/26 03:52:27;;;;;;;48.70;27.47;;;;;;;7.78;100.00;99053.84;4167075;28;20833;-68
2022/09/26 03:54:54;;;;;;;45.27;26.33;;;;;;;7.67;100.00;99055.97;4175432;28;20243;-68
2022/09/26 03:57:20;;;;;;;44.13;25.20;;;;;;;7.52;100.00;99053.91;4163472;28;20247;-70
2022/09/26 03:59:47;;;;;;;48.47;27.73;;;;;;;7.57;100.00;99054.25;4168094;28;20243;-68
2022/09/26 04:02:15;;;;;;;49.93;27.57;;;;;;;7.66;100.00;99056.97;4155710;28;20631;-67
2022/09/26 04:04:42;;;;;;;46.07;26.67;;;;;;;7.63;100.00;99052.78;4166573;28;20234;-67
2022/09/26 04:07:09;;;;;;;41.93;24.97;;;;;;;7.55;100.00;99045.66;4159587;28;20783;-66
2022/09/26 04:09:35;;;;;;;44.20;25.20;;;;;;;7.58;100.00;99045.31;4162828;28;21711;-67
2022/09/26 04:12:03;;;;;;;47.80;26.40;;;;;;;7.50;100.00;99053.25;4152554;28;20234;-67
2022/09/26 04:14:30;;;;;;;45.23;25.20;;;;;;;7.46;100.00;99054.53;4150384;28;22721;-68
2022/09/26 04:16:57;;;;;;;49.00;26.90;;;;;;;7.51;100.00;99054.91;4162157;28;20358;-67
2022/09/26 04:19:25;;;;;;;45.50;25.97;;;;;;;7.42;100.00;99049.72;4162088;28;20309;-69
2022/09/26 04:21:51;;;;;;;40.40;25.30;;;;;;;7.36;100.00;99049.38;4162893;28;20437;-66
2022/09/26 04:24:18;;;;;;;44.90;25.83;;;;;;;7.37;100.00;99042.25;4163900;28;21834;-69
2022/09/26 04:26:44;;;;;;;47.17;26.60;;;;;;;7.32;100.00;99048.03;4169306;28;22080;-67
2022/09/26 04:29:12;;;;;;;53.70;29.77;;;;;;;7.40;100.00;99044.63;4164728;28;21689;-68
2022/09/26 04:31:39;;;;;;;49.90;28.57;;;;;;;7.30;100.00;99042.06;4166154;28;20294;-68
2022/09/26 04:34:07;;;;;;;45.40;27.53;;;;;;;7.33;100.00;99041.78;4146766;28;20235;-68
2022/09/26 04:36:34;;;;;;;48.83;26.87;;;;;;;7.48;100.00;99042.00;4163374;28;21174;-66
2022/09/26 04:39:00;;;;;;;46.23;26.60;;;;;;;7.46;100.00;99036.03;4173054;28;20531;-69
2022/09/26 04:41:27;;;;;;;49.90;28.27;;;;;;;7.47;100.00;99037.69;4167904;28;20650;-68
2022/09/26 04:43:55;;;;;;;43.10;25.77;;;;;;;7.38;100.00;99038.66;4201853;28;21782;-66
2022/09/26 04:46:24;;;;;;;44.87;26.63;;;;;;;7.45;100.00;99034.38;4186872;28;20990;-68
2022/09/26 04:48:59;;;;;;;51.93;28.53;;;;;;;7.44;100.00;99042.47;4190543;28;20388;-67
2022/09/26 04:51:27;;;;;;;45.17;26.97;;;;;;;7.42;100.00;99044.44;4196300;29;21074;-67
2022/09/26 04:53:54;;;;;;;49.73;28.00;;;;;;;7.40;100.00;99039.31;4177560;29;21764;-67
2022/09/26 04:56:23;;;;;;;45.30;26.73;;;;;;;7.42;100.00;99033.84;4205109;29;20231;-68
2022/09/26 04:58:50;;;;;;;46.23;26.37;;;;;;;7.44;100.00;99027.41;4189014;29;21695;-68
2022/09/26 05:01:19;;;;;;;50.00;27.97;;;;;;;7.46;100.00;99032.56;4156716;28;21652;-67
2022/09/26 05:03:46;;;;;;;56.67;29.87;;;;;;;7.61;100.00;99034.44;4162952;29;25270;-68
2022/09/26 05:06:13;;;;;;;53.20;29.03;;;;;;;7.62;100.00;99029.97;4222570;28;20299;-68
2022/09/26 05:08:44;;;;;;;51.40;28.40;;;;;;;7.61;100.00;99034.44;4180714;29;21165;-66
2022/09/26 05:11:12;;;;;;;51.87;28.67;;;;;;;7.66;100.00;99027.84;4180708;28;21676;-70
2022/09/26 05:13:39;;;;;;;43.67;26.33;;;;;;;7.67;100.00;99027.66;4197444;28;20231;-68
2022/09/26 05:16:07;;;;;;;47.87;29.13;;;;;;;7.74;100.00;99033.13;4186882;29;20461;-67
2022/09/26 05:18:34;;;;;;;44.37;28.00;;;;;;;7.78;100.00;99034.47;4145361;29;20242;-69
2022/09/26 05:21:02;;;;;;;49.57;29.03;;;;;;;7.86;100.00;99031.84;4155831;28;20251;-68
2022/09/26 05:26:21;;;;;;;53.90;28.93;;;;;;;8.00;100.00;99033.03;4163716;28;20362;-66
2022/09/26 05:28:51;;;;;;;49.13;29.17;;;;;;;8.03;100.00;99036.19;4165317;28;20230;-66
2022/09/26 05:31:18;;;;;;;54.40;29.07;;;;;;;8.08;100.00;99033.06;4167167;29;20539;-66
2022/09/26 05:33:45;;;;;;;46.17;27.87;;;;;;;8.16;100.00;99029.59;4145410;28;26101;-71
2022/09/26 05:36:12;;;;;;;50.10;28.07;;;;;;;8.19;100.00;99031.88;4159935;28;20319;-71
2022/09/26 05:38:38;;;;;;;45.80;27.80;;;;;;;8.26;100.00;99027.59;4152621;29;20571;-70
2022/09/26 05:41:05;;;;;;;54.03;29.57;;;;;;;8.31;100.00;99016.50;4139913;28;20235;-69
2022/09/26 05:43:32;;;;;;;47.70;27.40;;;;;;;8.41;100.00;99015.38;4169776;28;20235;-69
2022/09/26 05:46:04;;;;;;;52.67;28.60;;;;;;;8.45;100.00;99022.00;4159209;28;20306;-70
2022/09/26 05:48:32;;;;;;;53.40;28.00;;;;;;;8.43;100.00;99013.41;4187672;28;20411;-70
2022/09/26 05:51:11;;;;;;;53.53;28.10;;;;;;;8.41;100.00;99004.78;4155387;28;20297;-70
2022/09/26 05:53:39;;;;;;;47.53;27.77;;;;;;;8.45;100.00;99008.75;4178506;28;20243;-68
2022/09/26 05:56:06;;;;;;;51.57;27.73;;;;;;;8.55;100.00;99005.94;4169594;28;20238;-69
2022/09/26 05:58:35;;;;;;;51.00;27.90;;;;;;;8.64;100.00;99006.75;4164945;28;20234;-70
2022/09/26 06:01:04;;;;;;;54.47;27.90;;;;;;;8.63;100.00;99002.44;4159117;28;21946;-71
2022/09/26 06:03:34;;;;;;;44.53;26.00;;;;;;;8.64;100.00;99014.72;4164844;28;20247;-69
2022/09/26 06:06:09;;;;;;;45.00;26.27;;;;;;;8.80;100.00;99004.09;4186381;28;20680;-68
2022/09/26 06:08:36;;;;;;;47.27;28.43;;;;;;;8.94;100.00;99005.19;4151641;28;22316;-68
2022/09/26 06:11:15;;;;;;;55.07;27.37;;;;;;;9.18;100.00;99011.44;4163401;28;20416;-65
2022/09/26 06:13:44;;;;;;;47.97;26.13;;;;;;;9.19;100.00;99005.13;4165816;28;25788;-74
2022/09/26 06:16:19;;;;;;;44.97;27.13;;;;;;;9.22;100.00;99010.06;4170590;28;21121;-76
2022/09/26 06:18:48;;;;;;;43.63;26.37;;;;;;;9.40;100.00;99005.38;4174723;28;20242;-70
2022/09/26 06:21:16;;;;;;;45.20;27.30;;;;;;;9.54;100.00;99017.09;4171181;28;20625;-71
2022/09/26 06:23:43;;;;;;;50.57;27.80;;;;;;;9.64;100.00;99017.69;4168713;28;20969;-70
2022/09/26 06:26:13;;;;;;;48.00;26.87;;;;;;;9.68;100.00;99008.38;4203281;28;20245;-72
2022/09/26 06:28:40;;;;;;;56.17;28.30;;;;;;;9.70;100.00;99021.50;4158517;28;20329;-71
2022/09/26 06:31:13;;;;;;;49.07;26.53;;;;;;;9.87;100.00;99027.53;4178101;28;21033;-73
2022/09/26 06:33:40;;;;;;;45.27;25.43;;;;;;;10.04;100.00;99026.44;4158638;28;20246;-73
2022/09/26 06:36:09;;;;;;;47.83;25.97;;;;;;;10.24;100.00;99023.31;4185370;28;20229;-71
2022/09/26 06:38:36;;;;;;;47.07;27.37;;;;;;;10.38;100.00;99019.09;4161820;28;20298;-70
2022/09/26 06:41:03;;;;;;;46.60;25.73;;;;;;;10.48;100.00;99024.97;4146525;28;20241;-71
2022/09/26 06:43:30;;;;;;;57.93;27.43;;;;;;;10.52;100.00;99024.44;4232681;28;20301;-75
2022/09/26 06:45:57;;;;;;;48.17;25.93;;;;;;;10.66;100.00;99024.66;4183050;28;21299;-71
2022/09/26 06:48:24;;;;;;;58.80;27.30;;;;;;;10.52;100.00;99020.97;4182538;28;20322;-69
2022/09/26 06:50:52;;;;;;;53.30;27.00;;;;;;;10.62;100.00;99024.19;4215022;28;20526;-69
2022/09/26 06:53:19;;;;;;;49.93;24.33;;;;;;;10.74;100.00;99024.59;4155878;29;20454;-72
2022/09/26 06:55:45;;;;;;;46.27;23.73;;;;;;;10.92;100.00;99032.22;4172150;28;20258;-67
2022/09/26 06:58:12;;;;;;;42.73;24.37;;;;;;;11.03;99.79;99029.13;4197761;28;20322;-71
2022/09/26 07:00:39;;;;;;;44.90;24.57;;;;;;;11.16;99.37;99034.63;4160295;28;22104;-72
2022/09/26 07:03:07;;;;;;;41.57;24.37;;;;;;;11.23;99.65;99034.72;4164691;28;20678;-70
2022/09/26 07:05:34;;;;;;;39.20;22.33;;;;;;;11.43;99.09;99036.84;4179894;29;20235;-71
2022/09/26 07:08:01;;;;;;;43.87;23.70;;;;;;;11.64;97.08;99039.56;4172150;28;20748;-71
2022/09/26 07:10:33;;;;;;;42.07;23.33;;;;;;;11.77;96.03;99036.22;4168990;28;20332;-71
2022/09/26 07:13:02;;;;;;;42.93;23.80;;;;;;;12.01;95.79;99043.94;4169385;28;20616;-69
2022/09/26 07:15:31;;;;;;;42.30;23.43;;;;;;;12.57;92.30;99048.59;4152458;28;20305;-70
2022/09/26 07:18:01;;;;;;;44.50;22.77;;;;;;;13.34;88.36;99046.88;4186337;28;20319;-70
2022/09/26 07:20:31;;;;;;;37.40;21.37;;;;;;;14.64;82.02;99050.41;4147867;28;26673;-66
2022/09/26 07:23:01;;;;;;;37.30;19.67;;;;;;;17.80;67.84;99067.00;4157332;28;20480;-71
2022/09/26 07:25:30;;;;;;;37.33;18.40;;;;;;;21.24;50.78;99096.97;4190039;28;20680;-67
2022/09/26 07:27:57;;;;;;;28.87;17.53;;;;;;;23.70;41.93;99102.22;4177993;28;21292;-70
2022/09/26 07:30:24;;;;;;;28.53;16.60;;;;;;;25.82;36.58;99124.78;4177500;28;20259;-67
2022/09/26 07:32:50;;;;;;;35.07;17.00;;;;;;;27.02;33.01;99121.97;4166638;28;22879;-67
2022/09/26 07:35:17;;;;;;;29.60;15.87;;;;;;;28.30;30.22;99128.84;4144544;28;22063;-68
2022/09/26 07:37:44;;;;;;;26.43;14.93;;;;;;;29.26;28.47;99131.25;4158607;28;21219;-69
2022/09/26 07:40:10;;;;;;;23.67;16.20;;;;;;;30.06;27.73;99135.53;4190189;28;20293;-73
2022/09/26 07:42:37;;;;;;;23.63;15.40;;;;;;;30.49;26.31;99134.38;4169075;28;20717;-70
2022/09/26 07:45:05;;;;;;;28.95;15.27;;;;;;;30.79;25.59;99134.75;4173483;28;20305;-68
2022/09/26 07:50:37;;;;;;;24.52;16.20;;;;;;;31.79;24.26;99130.88;4173489;28;21635;-68
2022/09/26 07:53:04;;;;;;;32.97;18.70;;;;;;;30.88;24.61;99121.94;4214481;28;20408;-67
2022/09/26 07:55:30;;;;;;;29.48;18.17;;;;;;;29.96;25.47;99107.50;4173371;28;20238;-69
2022/09/26 07:57:58;;;;;;;38.08;18.45;;;;;;;29.29;26.89;99111.50;4169229;28;20295;-70
2022/09/26 08:00:25;;;;;;;31.55;17.67;;;;;;;30.51;25.11;99112.91;4164650;28;20378;-68
2022/09/26 08:02:52;;;;;;;33.25;19.45;;;;;;;29.75;26.29;99105.16;4205124;28;20235;-66
2022/09/26 08:05:18;;;;;;;28.52;17.50;;;;;;;30.12;26.54;99114.28;4199251;28;20402;-44
2022/09/26 08:07:46;;;;;;;26.00;17.55;;;;;;;30.16;25.47;99106.25;4131072;29;21609;-66
2022/09/26 08:10:19;;;;;;;25.25;16.95;;;;;;;30.46;25.28;99113.00;4202663;28;21965;-54
2022/09/26 08:12:47;;;;;;;31.27;18.60;;;;;;;30.52;25.32;99109.03;4191360;28;20388;-50
2022/09/26 08:15:14;;;;;;;33.83;17.85;;;;;;;29.76;26.75;99112.28;4181013;28;20240;-39
2022/09/26 08:17:42;;;;;;;29.33;18.40;;;;;;;29.35;27.56;99104.78;4176067;28;20309;-68
2022/09/26 08:20:09;;;;;;;29.45;18.80;;;;;;;29.74;26.62;99103.53;4177348;28;20403;-66
2022/09/26 08:22:36;;;;;;;32.83;18.83;;;;;;;29.94;26.32;99104.22;4202066;28;20234;-67
2022/09/26 08:25:05;;;;;;;27.33;18.08;;;;;;;29.58;27.45;99096.69;4215040;28;20241;-65
2022/09/26 08:27:33;;;;;;;30.90;18.17;;;;;;;28.57;29.47;99085.25;4234413;28;20245;-66
2022/09/26 08:30:03;;;;;;;31.13;17.50;;;;;;;27.78;30.08;99080.25;4268320;28;22270;-66
2022/09/26 08:32:34;;;;;;;29.10;17.43;;;;;;;26.17;32.94;99063.06;4195246;29;20820;-66
2022/09/26 08:35:00;;;;;;;24.63;16.53;;;;;;;24.57;35.93;99061.75;4253465;28;20773;-68
2022/09/26 08:37:27;;;;;;;29.83;17.93;;;;;;;23.21;39.01;99045.47;4219943;28;20463;-65
2022/09/26 08:39:54;;;;;;;36.63;18.23;;;;;;;21.92;43.59;99035.34;4214834;28;20393;-68
2022/09/26 08:42:49;;;;;;;31.63;18.80;;;;;;;21.18;45.47;99027.59;4259881;28;20573;-67
2022/09/26 08:48:58;;;;;;;35.00;20.50;;;;;;;20.41;49.51;99021.75;4208571;28;22996;-67
2022/09/26 08:51:31;;;;;;;34.60;19.90;;;;;;;20.47;49.67;99024.59;4246777;28;21576;-66
2022/09/26 08:54:07;;;;;;;38.93;20.83;;;;;;;20.01;51.75;99013.75;4280194;28;20614;-68
2022/09/26 08:56:38;;;;;;;33.17;20.33;;;;;;;20.03;51.83;99027.84;4238975;28;20230;-67
2022/09/26 08:59:08;;;;;;;36.63;21.10;;;;;;;19.54;53.59;99013.91;4266927;29;20234;-67
2022/09/26 09:01:39;;;;;;;32.57;19.97;;;;;;;19.69;53.34;99011.53;4246411;28;21344;-68
2022/09/26 09:04:19;;;;;;;32.17;19.23;;;;;;;19.70;54.43;99002.38;4222754;28;20273;-68
2022/09/26 09:06:47;;;;;;;30.07;19.13;;;;;;;19.40;55.49;98995.25;4281973;28;20944;-70
2022/09/26 09:09:15;;;;;;;40.07;20.17;;;;;;;19.07;56.74;98987.00;4253817;28;20337;-67
2022/09/26 09:11:50;;;;;;;34.27;19.27;;;;;;;19.18;57.06;98994.25;4246331;28;20231;-67
2022/09/26 09:14:35;;;;;;;32.50;19.83;;;;;;;19.05;57.87;98986.41;4288762;28;20243;-67
2022/09/26 09:17:23;;;;;;;35.97;19.27;;;;;;;19.15;57.69;98984.78;4250650;28;20249;-67
2022/09/26 09:20:01;;;;;;;26.80;16.97;;;;;;;18.87;58.01;98980.09;4248239;28;20619;-67
2022/09/26 09:22:37;;;;;;;25.50;15.87;;;;;;;18.77;56.97;98975.28;4228320;28;20757;-68
2022/09/26 09:25:32;;;;;;;23.77;13.97;;;;;;;18.08;58.55;98977.63;4235712;28;20234;-68
2022/09/26 09:28:04;;;;;;;25.00;14.87;;;;;;;17.78;60.72;98972.22;4233120;28;20263;-67
2022/09/26 09:30:42;;;;;;;21.37;14.37;;;;;;;17.43;61.97;98967.50;4196266;29;25305;-67
2022/09/26 09:33:16;;;;;;;27.80;15.13;;;;;;;17.45;62.44;98972.66;4187367;28;20363;-68
2022/09/26 09:35:55;;;;;;;23.20;14.40;;;;;;;17.34;63.23;98962.66;4187904;28;20618;-68
2022/09/26 09:38:26;;;;;;;25.13;15.27;;;;;;;17.15;64.13;98970.72;4213487;28;20236;-69
2022/09/26 09:41:00;;;;;;;26.10;15.73;;;;;;;17.08;65.13;98968.09;4188963;28;20247;-69
2022/09/26 09:43:48;;;;;;;29.57;15.27;;;;;;;17.08;64.57;98967.28;4215887;29;21762;-66
2022/09/26 09:46:27;;;;;;;23.60;15.10;;;;;;;17.00;65.53;98954.97;4166756;28;20265;-67
2022/09/26 09:49:21;;;;;;;23.60;14.37;;;;;;;17.15;65.37;98968.03;4170420;29;20475;-69
2022/09/26 09:52:03;;;;;;;25.03;14.10;;;;;;;17.49;64.23;98965.78;4189566;28;20293;-68
2022/09/26 09:54:54;;;;;;;20.87;14.17;;;;;;;17.44;63.62;98962.91;4172392;28;20558;-71
2022/09/26 09:57:26;;;;;;;22.03;15.33;;;;;;;17.43;63.56;98966.69;4213967;28;20805;-72
2022/09/26 09:59:59;;;;;;;27.60;15.70;;;;;;;17.25;64.28;98970.19;4223707;28;21105;-69
2022/09/26 10:02:39;;;;;;;27.37;16.20;;;;;;;17.36;64.28;98961.38;4173575;28;25190;-70
2022/09/26 10:05:24;;;;;;;23.33;15.07;;;;;;;17.28;65.08;98957.13;4187570;28;20242;-67
2022/09/26 10:07:58;;;;;;;25.20;15.53;;;;;;;17.33;64.23;98961.00;4154403;29;20261;-68
2022/09/26 10:10:36;;;;;;;21.23;14.77;;;;;;;17.19;64.57;98955.78;4170607;28;20271;-70
2022/09/26 10:13:04;;;;;;;30.87;14.93;;;;;;;17.28;66.09;98967.06;4172471;28;20249;-68
2022/09/26 10:15:33;;;;;;;24.17;14.20;;;;;;;17.47;62.65;98962.50;4188666;28;20254;-68
2022/09/26 10:18:17;;;;;;;22.03;14.17;;;;;;;17.28;63.66;98954.44;4195819;28;20909;-68
2022/09/26 10:20:57;;;;;;;24.53;13.87;;;;;;;17.15;63.87;98957.28;4164398;29;20353;-67
2022/09/26 10:23:34;;;;;;;22.97;13.60;;;;;;;16.99;64.30;98955.19;4163396;28;20228;-67
2022/09/26 10:26:03;;;;;;;21.60;13.27;;;;;;;16.99;63.95;98950.63;4160028;28;20365;-69
2022/09/26 10:28:36;;;;;;;20.00;13.30;;;;;;;17.22;63.52;98955.31;4170127;28;20232;-70
2022/09/26 10:31:07;;;;;;;19.37;12.77;;;;;;;17.11;63.83;98957.94;4180719;28;21146;-67
2022/09/26 10:33:35;;;;;;;23.97;13.40;;;;;;;17.19;64.02;98963.84;4211713;28;22259;-68
2022/09/26 10:36:20;;;;;;;25.27;14.87;;;;;;;17.38;63.97;98951.22;4160038;28;22163;-69
2022/09/26 10:41:40;;;;;;;21.37;13.50;;;;;;;17.62;63.20;98949.44;4180667;28;20601;-69
2022/09/26 10:44:21;;;;;;;19.07;11.10;;;;;;;17.61;59.64;98957.78;4220213;29;20290;-69
2022/09/26 10:46:55;;;;;;;20.33;12.10;;;;;;;17.48;61.26;98953.38;4157185;29;20409;-68
2022/09/26 10:49:33;;;;;;;19.60;12.30;;;;;;;17.52;61.51;98943.81;4165182;28;20428;-66
2022/09/26 10:52:10;;;;;;;19.00;11.97;;;;;;;17.66;59.67;98947.97;4210015;28;20230;-70
2022/09/26 10:54:54;;;;;;;20.97;11.60;;;;;;;17.81;59.33;98939.50;4211248;28;20241;-68
2022/09/26 10:57:27;;;;;;;16.80;10.77;;;;;;;17.89;58.50;98947.25;4214169;28;20254;-71
2022/09/26 10:59:55;;;;;;;20.07;12.13;;;;;;;17.77;59.54;98937.44;4213531;28;20306;-71
2022/09/26 11:02:23;;;;;;;18.90;10.83;;;;;;;17.98;58.55;98937.00;4232950;28;21069;-69
2022/09/26 11:07:41;;;;;;;18.20;10.93;;;;;;;18.19;56.58;98946.41;4210070;28;20606;-68
2022/09/26 11:10:15;;;;;;;15.93;9.87;;;;;;;18.26;56.27;98943.59;4191742;28;20314;-69
2022/09/26 11:13:04;;;;;;;16.37;10.37;;;;;;;18.42;55.71;98939.41;4227062;28;20271;-69
2022/09/26 11:15:30;;;;;;;17.63;9.40;;;;;;;18.29;53.46;98940.44;4189758;28;20241;-70
2022/09/26 11:17:57;;;;;;;15.73;9.20;;;;;;;18.37;52.64;98937.41;4166445;28;20623;-67
2022/09/26 11:20:24;;;;;;;16.80;9.03;;;;;;;18.38;52.12;98940.91;4243770;28;20420;-67
2022/09/26 11:23:01;;;;;;;11.50;7.80;;;;;;;18.22;51.38;98945.13;4197200;28;20304;-66
2022/09/26 11:25:36;;;;;;;16.10;8.47;;;;;;;18.33;49.61;98939.75;4199754;28;20254;-67
2022/09/26 11:28:18;;;;;;;13.50;8.00;;;;;;;18.47;50.25;98939.50;4161249;29;21048;-68
2022/09/26 11:30:46;;;;;;;12.20;8.10;;;;;;;18.40;50.84;98936.91;4195854;28;20418;-67
2022/09/26 11:33:17;;;;;;;15.27;7.80;;;;;;;18.44;50.23;98938.09;4248267;28;20235;-70
2022/09/26 11:36:04;;;;;;;13.53;7.50;;;;;;;18.52;48.93;98932.38;4212692;28;20710;-67
2022/09/26 11:38:55;;;;;;;11.93;8.13;;;;;;;18.74;49.86;98931.78;4180107;28;21992;-67
2022/09/26 11:41:37;;;;;;;16.53;8.67;;;;;;;18.94;49.84;98924.19;4250367;28;20238;-69
2022/09/26 11:44:44;;;;;;;11.07;7.23;;;;;;;18.64;47.12;98928.88;4253034;28;21820;-68
2022/09/26 11:47:11;;;;;;;14.03;7.40;;;;;;;18.73;47.12;98927.44;4259886;28;20577;-66
2022/09/26 11:49:41;;;;;;;11.20;7.23;;;;;;;18.68;46.89;98917.41;4190848;28;20242;-69
2022/09/26 11:52:20;;;;;;;11.27;7.10;;;;;;;18.66;46.85;98910.56;4231608;28;20250;-68
2022/09/26 11:54:59;;;;;;;10.87;6.90;;;;;;;18.84;47.26;98906.97;4243363;28;20429;-68